sensor_id;sensor_type;location;lat;lon;timestamp;P1;durP1;ratioP1;P2;durP2;ratioP2
75426;SDS011;64007;50.632;13.700;2024-01-25T04:03:35;12.95;;;2.30;;
75426;SDS011;64007;50.632;13.700;2024-01-25T04:06:01;13.15;;;2.72;;
75426;SDS011;64007;50.632;13.700;2024-01-25T04:08:27;17.38;;;2.30;;
75426;SDS011;64007;50.632;13.700;2024-01-25T04:10:53;13.30;;;2.35;;
75426;SDS011;64007;50.632;13.700;2024-01-25T04:13:18;10.55;;;1.83;;
75426;SDS011;64007;50.632;13.700;2024-01-25T04:15:44;16.20;;;2.45;;
75426;SDS011;64007;50.632;13.700;2024-01-25T04:18:09;10.80;;;2.97;;
75426;SDS011;64007;50.632;13.700;2024-01-25T04:20:35;11.23;;;2.28;;
75426;SDS011;64007;50.632;13.700;2024-01-25T04:23:01;15.93;;;2.33;;
75426;SDS011;64007;50.632;13.700;2024-01-25T04:25:27;9.68;;;1.50;;
75426;SDS011;64007;50.632;13.700;2024-01-25T04:27:53;14.90;;;2.70;;
75426;SDS011;64007;50.632;13.700;2024-01-25T04:30:18;15.50;;;2.33;;
75426;SDS011;64007;50.632;13.700;2024-01-25T04:32:44;13.55;;;2.38;;
75426;SDS011;64007;50.632;13.700;2024-01-25T04:35:10;13.82;;;1.80;;
75426;SDS011;64007;50.632;13.700;2024-01-25T04:37:35;11.40;;;2.10;;
75426;SDS011;64007;50.632;13.700;2024-01-25T04:40:02;10.35;;;2.13;;
75426;SDS011;64007;50.632;13.700;2024-01-25T04:42:28;14.43;;;2.40;;
75426;SDS011;64007;50.632;13.700;2024-01-25T04:44:54;9.27;;;2.00;;
75426;SDS011;64007;50.632;13.700;2024-01-25T04:47:19;22.73;;;2.95;;
75426;SDS011;64007;50.632;13.700;2024-01-25T04:49:45;21.10;;;2.20;;
75426;SDS011;64007;50.632;13.700;2024-01-25T04:52:10;13.00;;;2.35;;
75426;SDS011;64007;50.632;13.700;2024-01-25T04:54:36;8.32;;;2.35;;
75426;SDS011;64007;50.632;13.700;2024-01-25T04:57:02;10.82;;;2.38;;
75426;SDS011;64007;50.632;13.700;2024-01-25T04:59:35;10.93;;;2.28;;
75426;SDS011;64007;50.632;13.700;2024-01-25T05:02:01;10.05;;;2.03;;
75426;SDS011;64007;50.632;13.700;2024-01-25T05:04:28;17.25;;;2.35;;
75426;SDS011;64007;50.632;13.700;2024-01-25T05:06:54;14.52;;;2.33;;
75426;SDS011;64007;50.632;13.700;2024-01-25T05:09:21;18.38;;;2.78;;
75426;SDS011;64007;50.632;13.700;2024-01-25T05:11:46;13.82;;;2.50;;
75426;SDS011;64007;50.632;13.700;2024-01-25T05:14:12;16.65;;;2.58;;
75426;SDS011;64007;50.632;13.700;2024-01-25T05:16:38;7.45;;;1.92;;
75426;SDS011;64007;50.632;13.700;2024-01-25T05:19:03;11.52;;;1.85;;
75426;SDS011;64007;50.632;13.700;2024-01-25T05:21:29;14.18;;;2.20;;
75426;SDS011;64007;50.632;13.700;2024-01-25T05:23:55;11.38;;;1.90;;
75426;SDS011;64007;50.632;13.700;2024-01-25T05:26:20;11.70;;;2.05;;
75426;SDS011;64007;50.632;13.700;2024-01-25T05:28:46;11.55;;;1.80;;
75426;SDS011;64007;50.632;13.700;2024-01-25T05:31:12;14.80;;;1.60;;
75426;SDS011;64007;50.632;13.700;2024-01-25T05:33:38;13.35;;;2.20;;
75426;SDS011;64007;50.632;13.700;2024-01-25T05:36:04;11.57;;;2.00;;
75426;SDS011;64007;50.632;13.700;2024-01-25T05:38:31;8.60;;;1.83;;
75426;SDS011;64007;50.632;13.700;2024-01-25T05:40:57;11.07;;;1.80;;
75426;SDS011;64007;50.632;13.700;2024-01-25T05:43:24;17.30;;;1.88;;
75426;SDS011;64007;50.632;13.700;2024-01-25T05:45:49;11.05;;;2.55;;
75426;SDS011;64007;50.632;13.700;2024-01-25T05:48:15;14.23;;;2.22;;
75426;SDS011;64007;50.632;13.700;2024-01-25T05:50:41;15.07;;;1.90;;
75426;SDS011;64007;50.632;13.700;2024-01-25T05:53:07;15.98;;;2.05;;
75426;SDS011;64007;50.632;13.700;2024-01-25T05:55:32;7.75;;;1.35;;
75426;SDS011;64007;50.632;13.700;2024-01-25T05:57:58;9.45;;;1.50;;
75426;SDS011;64007;50.632;13.700;2024-01-25T06:00:24;11.95;;;2.17;;
75426;SDS011;64007;50.632;13.700;2024-01-25T06:02:50;15.43;;;3.15;;
75426;SDS011;64007;50.632;13.700;2024-01-25T06:05:15;11.90;;;2.08;;
75426;SDS011;64007;50.632;13.700;2024-01-25T06:07:41;12.63;;;1.90;;
75426;SDS011;64007;50.632;13.700;2024-01-25T06:10:07;6.95;;;2.03;;
75426;SDS011;64007;50.632;13.700;2024-01-25T06:12:34;17.80;;;2.40;;
75426;SDS011;64007;50.632;13.700;2024-01-25T06:14:59;11.02;;;1.50;;
75426;SDS011;64007;50.632;13.700;2024-01-25T06:17:25;7.97;;;1.75;;
75426;SDS011;64007;50.632;13.700;2024-01-25T06:19:51;14.77;;;2.28;;
75426;SDS011;64007;50.632;13.700;2024-01-25T06:22:16;13.77;;;2.15;;
75426;SDS011;64007;50.632;13.700;2024-01-25T06:24:42;21.30;;;2.00;;
75426;SDS011;64007;50.632;13.700;2024-01-25T06:27:11;13.25;;;1.88;;
75426;SDS011;64007;50.632;13.700;2024-01-25T06:29:37;16.40;;;1.85;;
75426;SDS011;64007;50.632;13.700;2024-01-25T06:32:03;17.48;;;2.40;;
75426;SDS011;64007;50.632;13.700;2024-01-25T06:34:29;9.57;;;1.60;;
75426;SDS011;64007;50.632;13.700;2024-01-25T06:36:54;11.07;;;2.00;;
75426;SDS011;64007;50.632;13.700;2024-01-25T06:39:20;12.65;;;2.20;;
75426;SDS011;64007;50.632;13.700;2024-01-25T06:41:46;16.60;;;2.28;;
75426;SDS011;64007;50.632;13.700;2024-01-25T06:44:11;20.25;;;2.70;;
75426;SDS011;64007;50.632;13.700;2024-01-25T06:46:37;10.75;;;2.33;;
75426;SDS011;64007;50.632;13.700;2024-01-25T06:49:03;10.77;;;2.00;;
75426;SDS011;64007;50.632;13.700;2024-01-25T06:51:29;9.55;;;2.28;;
75426;SDS011;64007;50.632;13.700;2024-01-25T06:53:54;14.30;;;2.42;;
75426;SDS011;64007;50.632;13.700;2024-01-25T06:56:20;10.73;;;1.98;;
75426;SDS011;64007;50.632;13.700;2024-01-25T06:58:46;16.88;;;1.83;;
75426;SDS011;64007;50.632;13.700;2024-01-25T07:01:11;15.48;;;2.35;;
75426;SDS011;64007;50.632;13.700;2024-01-25T07:03:37;9.23;;;1.83;;
75426;SDS011;64007;50.632;13.700;2024-01-25T07:06:03;16.17;;;2.03;;
75426;SDS011;64007;50.632;13.700;2024-01-25T07:08:29;12.98;;;2.53;;
75426;SDS011;64007;50.632;13.700;2024-01-25T07:10:55;14.20;;;2.20;;
75426;SDS011;64007;50.632;13.700;2024-01-25T07:13:21;15.18;;;2.03;;
75426;SDS011;64007;50.632;13.700;2024-01-25T07:15:50;12.75;;;2.17;;
75426;SDS011;64007;50.632;13.700;2024-01-25T07:18:16;12.60;;;1.55;;
75426;SDS011;64007;50.632;13.700;2024-01-25T07:20:41;9.18;;;1.65;;
75426;SDS011;64007;50.632;13.700;2024-01-25T07:23:07;8.55;;;1.30;;
75426;SDS011;64007;50.632;13.700;2024-01-25T07:25:33;12.27;;;1.45;;
75426;SDS011;64007;50.632;13.700;2024-01-25T07:27:58;6.95;;;1.85;;
75426;SDS011;64007;50.632;13.700;2024-01-25T07:30:24;9.00;;;1.58;;
75426;SDS011;64007;50.632;13.700;2024-01-25T07:32:50;8.40;;;1.38;;
75426;SDS011;64007;50.632;13.700;2024-01-25T07:35:16;11.55;;;1.80;;
75426;SDS011;64007;50.632;13.700;2024-01-25T07:37:41;13.68;;;1.80;;
75426;SDS011;64007;50.632;13.700;2024-01-25T07:40:08;7.28;;;1.45;;
75426;SDS011;64007;50.632;13.700;2024-01-25T07:42:34;9.43;;;1.55;;
75426;SDS011;64007;50.632;13.700;2024-01-25T07:44:59;8.57;;;1.65;;
75426;SDS011;64007;50.632;13.700;2024-01-25T07:47:26;7.68;;;1.23;;
75426;SDS011;64007;50.632;13.700;2024-01-25T07:49:51;5.00;;;1.23;;
75426;SDS011;64007;50.632;13.700;2024-01-25T07:52:17;8.40;;;1.83;;
75426;SDS011;64007;50.632;13.700;2024-01-25T07:54:43;8.07;;;1.30;;
75426;SDS011;64007;50.632;13.700;2024-01-25T07:57:09;17.30;;;1.83;;
75426;SDS011;64007;50.632;13.700;2024-01-25T07:59:35;9.25;;;1.20;;
75426;SDS011;64007;50.632;13.700;2024-01-25T08:02:01;9.98;;;1.60;;
75426;SDS011;64007;50.632;13.700;2024-01-25T08:04:27;7.63;;;1.75;;
75426;SDS011;64007;50.632;13.700;2024-01-25T08:06:53;12.38;;;1.70;;
75426;SDS011;64007;50.632;13.700;2024-01-25T08:09:19;8.65;;;1.70;;
75426;SDS011;64007;50.632;13.700;2024-01-25T08:11:44;6.40;;;1.45;;
75426;SDS011;64007;50.632;13.700;2024-01-25T08:14:11;11.73;;;1.75;;
75426;SDS011;64007;50.632;13.700;2024-01-25T08:16:36;11.68;;;1.83;;
75426;SDS011;64007;50.632;13.700;2024-01-25T08:19:03;11.85;;;1.50;;
75426;SDS011;64007;50.632;13.700;2024-01-25T08:21:29;13.40;;;1.92;;
75426;SDS011;64007;50.632;13.700;2024-01-25T08:23:56;12.38;;;1.52;;
75426;SDS011;64007;50.632;13.700;2024-01-25T08:26:21;8.50;;;1.30;;
75426;SDS011;64007;50.632;13.700;2024-01-25T08:28:47;14.52;;;2.90;;
75426;SDS011;64007;50.632;13.700;2024-01-25T08:31:13;7.40;;;1.50;;
75426;SDS011;64007;50.632;13.700;2024-01-25T08:33:39;15.23;;;1.48;;
75426;SDS011;64007;50.632;13.700;2024-01-25T08:36:10;9.90;;;1.33;;
75426;SDS011;64007;50.632;13.700;2024-01-25T08:38:36;9.30;;;2.00;;
75426;SDS011;64007;50.632;13.700;2024-01-25T08:41:02;11.88;;;1.77;;
75426;SDS011;64007;50.632;13.700;2024-01-25T08:43:28;10.10;;;2.03;;
75426;SDS011;64007;50.632;13.700;2024-01-25T08:45:53;10.98;;;1.83;;
75426;SDS011;64007;50.632;13.700;2024-01-25T08:48:19;10.13;;;1.92;;
75426;SDS011;64007;50.632;13.700;2024-01-25T08:50:46;8.13;;;2.00;;
75426;SDS011;64007;50.632;13.700;2024-01-25T08:53:11;5.47;;;1.20;;
75426;SDS011;64007;50.632;13.700;2024-01-25T08:55:37;11.90;;;2.08;;
75426;SDS011;64007;50.632;13.700;2024-01-25T08:58:03;11.20;;;1.75;;
75426;SDS011;64007;50.632;13.700;2024-01-25T09:00:29;11.75;;;1.80;;
75426;SDS011;64007;50.632;13.700;2024-01-25T09:02:55;11.40;;;1.95;;
75426;SDS011;64007;50.632;13.700;2024-01-25T09:05:20;4.88;;;1.38;;
75426;SDS011;64007;50.632;13.700;2024-01-25T09:07:46;8.88;;;1.67;;
75426;SDS011;64007;50.632;13.700;2024-01-25T09:10:12;9.07;;;1.75;;
75426;SDS011;64007;50.632;13.700;2024-01-25T09:12:38;10.73;;;1.60;;
75426;SDS011;64007;50.632;13.700;2024-01-25T09:15:04;9.18;;;1.70;;
75426;SDS011;64007;50.632;13.700;2024-01-25T09:17:31;12.73;;;1.75;;
75426;SDS011;64007;50.632;13.700;2024-01-25T09:19:56;7.47;;;1.40;;
75426;SDS011;64007;50.632;13.700;2024-01-25T09:22:24;7.10;;;1.45;;
75426;SDS011;64007;50.632;13.700;2024-01-25T09:24:50;8.23;;;1.67;;
75426;SDS011;64007;50.632;13.700;2024-01-25T09:27:16;12.32;;;1.55;;
75426;SDS011;64007;50.632;13.700;2024-01-25T09:29:41;5.47;;;1.23;;
75426;SDS011;64007;50.632;13.700;2024-01-25T09:32:08;11.27;;;2.20;;
75426;SDS011;64007;50.632;13.700;2024-01-25T09:34:35;9.18;;;1.48;;
75426;SDS011;64007;50.632;13.700;2024-01-25T09:37:02;12.55;;;1.60;;
75426;SDS011;64007;50.632;13.700;2024-01-25T09:39:28;13.10;;;2.10;;
75426;SDS011;64007;50.632;13.700;2024-01-25T09:41:54;7.68;;;1.45;;
75426;SDS011;64007;50.632;13.700;2024-01-25T09:44:19;13.93;;;1.90;;
75426;SDS011;64007;50.632;13.700;2024-01-25T09:46:46;15.98;;;2.17;;
75426;SDS011;64007;50.632;13.700;2024-01-25T09:49:11;9.75;;;1.92;;
75426;SDS011;64007;50.632;13.700;2024-01-25T09:51:38;9.98;;;1.38;;
75426;SDS011;64007;50.632;13.700;2024-01-25T09:54:04;7.90;;;1.90;;
75426;SDS011;64007;50.632;13.700;2024-01-25T09:56:31;14.18;;;1.85;;
75426;SDS011;64007;50.632;13.700;2024-01-25T09:58:57;10.85;;;1.60;;
75426;SDS011;64007;50.632;13.700;2024-01-25T10:01:24;11.68;;;1.63;;
75426;SDS011;64007;50.632;13.700;2024-01-25T10:03:50;11.40;;;2.20;;
75426;SDS011;64007;50.632;13.700;2024-01-25T10:06:16;5.70;;;1.40;;
75426;SDS011;64007;50.632;13.700;2024-01-25T10:08:43;11.77;;;1.70;;
75426;SDS011;64007;50.632;13.700;2024-01-25T10:11:10;8.48;;;1.35;;
75426;SDS011;64007;50.632;13.700;2024-01-25T10:13:43;15.98;;;2.33;;
75426;SDS011;64007;50.632;13.700;2024-01-25T10:16:10;6.05;;;1.48;;
75426;SDS011;64007;50.632;13.700;2024-01-25T10:18:37;9.70;;;1.20;;
75426;SDS011;64007;50.632;13.700;2024-01-25T10:21:05;8.35;;;1.65;;
75426;SDS011;64007;50.632;13.700;2024-01-25T10:23:31;5.53;;;1.40;;
75426;SDS011;64007;50.632;13.700;2024-01-25T10:25:58;4.90;;;1.15;;
75426;SDS011;64007;50.632;13.700;2024-01-25T10:28:23;9.07;;;1.50;;
75426;SDS011;64007;50.632;13.700;2024-01-25T10:30:57;9.65;;;1.50;;
75426;SDS011;64007;50.632;13.700;2024-01-25T10:33:25;11.07;;;1.52;;
75426;SDS011;64007;50.632;13.700;2024-01-25T10:35:53;5.90;;;1.25;;
75426;SDS011;64007;50.632;13.700;2024-01-25T10:38:23;6.55;;;1.42;;
75426;SDS011;64007;50.632;13.700;2024-01-25T10:40:50;6.05;;;1.38;;
75426;SDS011;64007;50.632;13.700;2024-01-25T10:43:18;4.18;;;1.13;;
75426;SDS011;64007;50.632;13.700;2024-01-25T10:45:44;13.32;;;1.85;;
75426;SDS011;64007;50.632;13.700;2024-01-25T10:48:10;9.32;;;1.35;;
75426;SDS011;64007;50.632;13.700;2024-01-25T10:50:36;8.95;;;1.52;;
75426;SDS011;64007;50.632;13.700;2024-01-25T10:53:02;7.03;;;1.70;;
75426;SDS011;64007;50.632;13.700;2024-01-25T10:55:30;8.05;;;1.33;;
75426;SDS011;64007;50.632;13.700;2024-01-25T10:57:56;8.30;;;1.73;;
75426;SDS011;64007;50.632;13.700;2024-01-25T11:00:22;6.47;;;1.25;;
75426;SDS011;64007;50.632;13.700;2024-01-25T11:02:47;6.97;;;1.45;;
75426;SDS011;64007;50.632;13.700;2024-01-25T11:05:15;2.85;;;1.08;;
75426;SDS011;64007;50.632;13.700;2024-01-25T11:07:43;5.85;;;1.15;;
75426;SDS011;64007;50.632;13.700;2024-01-25T11:10:13;9.32;;;1.13;;
75426;SDS011;64007;50.632;13.700;2024-01-25T11:15:20;7.32;;;1.42;;
75426;SDS011;64007;50.632;13.700;2024-01-25T11:18:00;9.93;;;1.25;;
75426;SDS011;64007;50.632;13.700;2024-01-25T11:20:27;7.97;;;1.40;;
75426;SDS011;64007;50.632;13.700;2024-01-25T11:23:13;6.35;;;1.42;;
75426;SDS011;64007;50.632;13.700;2024-01-25T11:25:43;11.57;;;1.27;;
75426;SDS011;64007;50.632;13.700;2024-01-25T11:28:11;8.88;;;1.23;;
75426;SDS011;64007;50.632;13.700;2024-01-25T11:30:38;4.43;;;1.10;;
75426;SDS011;64007;50.632;13.700;2024-01-25T11:33:06;10.95;;;1.55;;
75426;SDS011;64007;50.632;13.700;2024-01-25T11:35:33;2.95;;;0.95;;
75426;SDS011;64007;50.632;13.700;2024-01-25T11:37:59;7.32;;;1.42;;
75426;SDS011;64007;50.632;13.700;2024-01-25T11:40:25;6.53;;;1.58;;
75426;SDS011;64007;50.632;13.700;2024-01-25T11:42:53;4.63;;;1.85;;
75426;SDS011;64007;50.632;13.700;2024-01-25T11:45:19;14.77;;;6.95;;
75426;SDS011;64007;50.632;13.700;2024-01-25T11:47:44;7.85;;;1.30;;
75426;SDS011;64007;50.632;13.700;2024-01-25T11:50:11;6.68;;;1.00;;
75426;SDS011;64007;50.632;13.700;2024-01-25T11:52:38;10.43;;;1.67;;
75426;SDS011;64007;50.632;13.700;2024-01-25T11:55:05;7.13;;;1.40;;
75426;SDS011;64007;50.632;13.700;2024-01-25T11:57:34;8.55;;;1.20;;
75426;SDS011;64007;50.632;13.700;2024-01-25T12:00:03;6.93;;;1.30;;
75426;SDS011;64007;50.632;13.700;2024-01-25T12:02:32;15.68;;;1.63;;
75426;SDS011;64007;50.632;13.700;2024-01-25T12:04:58;8.20;;;1.50;;
75426;SDS011;64007;50.632;13.700;2024-01-25T12:07:24;11.05;;;1.60;;
75426;SDS011;64007;50.632;13.700;2024-01-25T12:09:56;6.38;;;1.23;;
75426;SDS011;64007;50.632;13.700;2024-01-25T12:12:24;7.13;;;1.17;;
75426;SDS011;64007;50.632;13.700;2024-01-25T12:14:51;7.53;;;1.20;;
75426;SDS011;64007;50.632;13.700;2024-01-25T12:17:17;5.30;;;1.25;;
75426;SDS011;64007;50.632;13.700;2024-01-25T12:19:43;4.47;;;1.13;;
75426;SDS011;64007;50.632;13.700;2024-01-25T12:22:09;10.15;;;1.70;;
75426;SDS011;64007;50.632;13.700;2024-01-25T12:24:35;6.18;;;1.00;;
75426;SDS011;64007;50.632;13.700;2024-01-25T12:27:00;6.60;;;1.20;;
75426;SDS011;64007;50.632;13.700;2024-01-25T12:29:26;8.90;;;1.10;;
75426;SDS011;64007;50.632;13.700;2024-01-25T12:31:52;7.70;;;1.33;;
75426;SDS011;64007;50.632;13.700;2024-01-25T12:34:18;7.88;;;1.48;;
75426;SDS011;64007;50.632;13.700;2024-01-25T12:36:43;4.03;;;0.90;;
75426;SDS011;64007;50.632;13.700;2024-01-25T12:39:09;7.65;;;1.45;;
75426;SDS011;64007;50.632;13.700;2024-01-25T12:41:36;3.45;;;1.02;;
75426;SDS011;64007;50.632;13.700;2024-01-25T12:44:03;4.90;;;1.17;;
75426;SDS011;64007;50.632;13.700;2024-01-25T12:46:29;6.43;;;1.33;;
75426;SDS011;64007;50.632;13.700;2024-01-25T12:48:55;10.45;;;1.38;;
75426;SDS011;64007;50.632;13.700;2024-01-25T12:51:22;6.25;;;1.45;;
75426;SDS011;64007;50.632;13.700;2024-01-25T12:53:48;3.92;;;1.20;;
75426;SDS011;64007;50.632;13.700;2024-01-25T12:56:14;3.88;;;1.20;;
75426;SDS011;64007;50.632;13.700;2024-01-25T12:58:40;7.10;;;1.40;;
75426;SDS011;64007;50.632;13.700;2024-01-25T13:01:06;8.07;;;0.80;;
75426;SDS011;64007;50.632;13.700;2024-01-25T13:03:32;4.93;;;1.00;;
75426;SDS011;64007;50.632;13.700;2024-01-25T13:05:58;4.88;;;1.17;;
75426;SDS011;64007;50.632;13.700;2024-01-25T13:08:24;8.23;;;1.67;;
75426;SDS011;64007;50.632;13.700;2024-01-25T13:10:49;4.25;;;1.00;;
75426;SDS011;64007;50.632;13.700;2024-01-25T13:13:15;6.22;;;1.10;;
75426;SDS011;64007;50.632;13.700;2024-01-25T13:15:41;9.55;;;1.67;;
75426;SDS011;64007;50.632;13.700;2024-01-25T13:18:06;6.45;;;1.55;;
75426;SDS011;64007;50.632;13.700;2024-01-25T13:20:32;4.97;;;1.20;;
75426;SDS011;64007;50.632;13.700;2024-01-25T13:22:58;6.28;;;1.45;;
75426;SDS011;64007;50.632;13.700;2024-01-25T13:25:23;7.90;;;1.50;;
75426;SDS011;64007;50.632;13.700;2024-01-25T13:27:49;11.27;;;2.42;;
75426;SDS011;64007;50.632;13.700;2024-01-25T13:30:15;14.43;;;3.03;;
75426;SDS011;64007;50.632;13.700;2024-01-25T13:32:41;27.95;;;4.93;;
75426;SDS011;64007;50.632;13.700;2024-01-25T13:35:06;7.90;;;1.90;;
75426;SDS011;64007;50.632;13.700;2024-01-25T13:37:32;6.53;;;1.13;;
75426;SDS011;64007;50.632;13.700;2024-01-25T13:39:58;13.38;;;2.35;;
75426;SDS011;64007;50.632;13.700;2024-01-25T13:42:24;10.43;;;1.42;;
75426;SDS011;64007;50.632;13.700;2024-01-25T13:44:49;9.25;;;1.33;;
75426;SDS011;64007;50.632;13.700;2024-01-25T13:47:15;6.43;;;1.00;;
75426;SDS011;64007;50.632;13.700;2024-01-25T13:49:41;7.57;;;2.65;;
75426;SDS011;64007;50.632;13.700;2024-01-25T13:52:07;11.25;;;3.50;;
75426;SDS011;64007;50.632;13.700;2024-01-25T13:54:45;5.95;;;1.85;;
75426;SDS011;64007;50.632;13.700;2024-01-25T13:57:13;8.95;;;1.77;;
75426;SDS011;64007;50.632;13.700;2024-01-25T13:59:39;5.82;;;1.40;;
75426;SDS011;64007;50.632;13.700;2024-01-25T14:02:05;2.85;;;1.10;;
75426;SDS011;64007;50.632;13.700;2024-01-25T14:04:30;9.20;;;1.92;;
75426;SDS011;64007;50.632;13.700;2024-01-25T14:06:56;7.22;;;1.30;;
75426;SDS011;64007;50.632;13.700;2024-01-25T14:09:22;4.55;;;1.23;;
75426;SDS011;64007;50.632;13.700;2024-01-25T14:11:48;6.72;;;1.10;;
75426;SDS011;64007;50.632;13.700;2024-01-25T14:14:13;2.92;;;0.80;;
75426;SDS011;64007;50.632;13.700;2024-01-25T14:16:39;4.53;;;1.50;;
75426;SDS011;64007;50.632;13.700;2024-01-25T14:19:05;7.35;;;1.35;;
75426;SDS011;64007;50.632;13.700;2024-01-25T14:21:31;4.57;;;1.35;;
75426;SDS011;64007;50.632;13.700;2024-01-25T14:23:57;10.00;;;1.60;;
75426;SDS011;64007;50.632;13.700;2024-01-25T14:26:23;6.47;;;1.67;;
75426;SDS011;64007;50.632;13.700;2024-01-25T14:28:48;4.50;;;1.30;;
75426;SDS011;64007;50.632;13.700;2024-01-25T14:31:15;7.75;;;1.17;;
75426;SDS011;64007;50.632;13.700;2024-01-25T14:33:40;6.78;;;1.52;;
75426;SDS011;64007;50.632;13.700;2024-01-25T14:36:06;5.95;;;1.27;;
75426;SDS011;64007;50.632;13.700;2024-01-25T14:38:32;4.18;;;1.23;;
75426;SDS011;64007;50.632;13.700;2024-01-25T14:40:59;7.30;;;1.67;;
75426;SDS011;64007;50.632;13.700;2024-01-25T14:43:25;7.35;;;1.10;;
75426;SDS011;64007;50.632;13.700;2024-01-25T14:45:51;4.70;;;1.25;;
75426;SDS011;64007;50.632;13.700;2024-01-25T14:48:18;6.60;;;1.40;;
75426;SDS011;64007;50.632;13.700;2024-01-25T14:50:44;8.55;;;1.73;;
75426;SDS011;64007;50.632;13.700;2024-01-25T14:53:10;6.30;;;1.60;;
75426;SDS011;64007;50.632;13.700;2024-01-25T14:55:35;8.30;;;1.67;;
75426;SDS011;64007;50.632;13.700;2024-01-25T14:58:01;12.45;;;1.77;;
75426;SDS011;64007;50.632;13.700;2024-01-25T15:00:27;11.82;;;1.88;;
75426;SDS011;64007;50.632;13.700;2024-01-25T15:02:52;7.95;;;1.48;;
75426;SDS011;64007;50.632;13.700;2024-01-25T15:05:18;16.10;;;2.10;;
75426;SDS011;64007;50.632;13.700;2024-01-25T15:07:44;12.05;;;1.60;;
75426;SDS011;64007;50.632;13.700;2024-01-25T15:10:10;9.75;;;1.42;;
75426;SDS011;64007;50.632;13.700;2024-01-25T15:12:37;8.48;;;1.30;;
75426;SDS011;64007;50.632;13.700;2024-01-25T15:15:03;8.18;;;1.35;;
75426;SDS011;64007;50.632;13.700;2024-01-25T15:17:28;10.35;;;1.70;;
75426;SDS011;64007;50.632;13.700;2024-01-25T15:19:54;9.00;;;1.48;;
75426;SDS011;64007;50.632;13.700;2024-01-25T15:22:20;13.05;;;2.60;;
75426;SDS011;64007;50.632;13.700;2024-01-25T15:24:48;6.63;;;1.40;;
75426;SDS011;64007;50.632;13.700;2024-01-25T15:27:13;7.50;;;2.20;;
75426;SDS011;64007;50.632;13.700;2024-01-25T15:29:39;7.28;;;2.17;;
75426;SDS011;64007;50.632;13.700;2024-01-25T15:32:06;4.28;;;2.10;;
75426;SDS011;64007;50.632;13.700;2024-01-25T15:34:31;7.47;;;2.53;;
75426;SDS011;64007;50.632;13.700;2024-01-25T15:36:57;8.27;;;2.30;;
75426;SDS011;64007;50.632;13.700;2024-01-25T15:39:23;8.43;;;1.50;;
75426;SDS011;64007;50.632;13.700;2024-01-25T15:41:49;7.97;;;1.77;;
75426;SDS011;64007;50.632;13.700;2024-01-25T15:44:16;8.50;;;1.65;;
75426;SDS011;64007;50.632;13.700;2024-01-25T15:46:42;7.38;;;1.45;;
75426;SDS011;64007;50.632;13.700;2024-01-25T15:49:08;8.90;;;1.50;;
75426;SDS011;64007;50.632;13.700;2024-01-25T15:51:34;11.32;;;1.40;;
75426;SDS011;64007;50.632;13.700;2024-01-25T15:54:00;11.10;;;2.00;;
75426;SDS011;64007;50.632;13.700;2024-01-25T15:56:26;6.45;;;1.52;;
75426;SDS011;64007;50.632;13.700;2024-01-25T15:58:52;7.43;;;1.77;;
75426;SDS011;64007;50.632;13.700;2024-01-25T16:01:18;9.30;;;1.60;;
75426;SDS011;64007;50.632;13.700;2024-01-25T16:03:45;8.30;;;1.80;;
75426;SDS011;64007;50.632;13.700;2024-01-25T16:06:11;7.07;;;1.85;;
75426;SDS011;64007;50.632;13.700;2024-01-25T16:08:37;5.75;;;1.33;;
75426;SDS011;64007;50.632;13.700;2024-01-25T16:11:03;14.07;;;2.47;;
75426;SDS011;64007;50.632;13.700;2024-01-25T16:13:29;12.88;;;2.40;;
75426;SDS011;64007;50.632;13.700;2024-01-25T16:15:55;8.75;;;2.33;;
75426;SDS011;64007;50.632;13.700;2024-01-25T16:18:20;6.18;;;2.22;;
75426;SDS011;64007;50.632;13.700;2024-01-25T16:20:46;7.63;;;1.80;;
75426;SDS011;64007;50.632;13.700;2024-01-25T16:23:12;7.13;;;1.52;;
75426;SDS011;64007;50.632;13.700;2024-01-25T16:25:39;9.30;;;1.55;;
75426;SDS011;64007;50.632;13.700;2024-01-25T16:28:04;8.48;;;2.50;;
75426;SDS011;64007;50.632;13.700;2024-01-25T16:30:30;9.20;;;2.33;;
75426;SDS011;64007;50.632;13.700;2024-01-25T16:32:56;7.45;;;1.60;;
75426;SDS011;64007;50.632;13.700;2024-01-25T16:35:23;9.55;;;2.38;;
75426;SDS011;64007;50.632;13.700;2024-01-25T16:37:48;8.48;;;1.65;;
75426;SDS011;64007;50.632;13.700;2024-01-25T16:40:14;15.48;;;3.53;;
75426;SDS011;64007;50.632;13.700;2024-01-25T16:42:40;9.75;;;2.50;;
75426;SDS011;64007;50.632;13.700;2024-01-25T16:45:07;7.45;;;1.65;;
75426;SDS011;64007;50.632;13.700;2024-01-25T16:47:33;7.60;;;1.83;;
75426;SDS011;64007;50.632;13.700;2024-01-25T16:49:59;6.93;;;1.30;;
75426;SDS011;64007;50.632;13.700;2024-01-25T16:52:25;9.93;;;1.85;;
75426;SDS011;64007;50.632;13.700;2024-01-25T16:54:51;12.75;;;2.33;;
75426;SDS011;64007;50.632;13.700;2024-01-25T16:57:16;8.85;;;2.30;;
75426;SDS011;64007;50.632;13.700;2024-01-25T16:59:42;9.02;;;2.08;;
75426;SDS011;64007;50.632;13.700;2024-01-25T17:02:08;9.65;;;1.40;;
75426;SDS011;64007;50.632;13.700;2024-01-25T17:04:36;8.25;;;1.65;;
75426;SDS011;64007;50.632;13.700;2024-01-25T17:07:02;10.13;;;2.63;;
75426;SDS011;64007;50.632;13.700;2024-01-25T17:09:28;9.60;;;1.92;;
75426;SDS011;64007;50.632;13.700;2024-01-25T17:11:54;13.32;;;2.88;;
75426;SDS011;64007;50.632;13.700;2024-01-25T17:14:20;11.30;;;2.33;;
75426;SDS011;64007;50.632;13.700;2024-01-25T17:16:46;11.15;;;2.13;;
75426;SDS011;64007;50.632;13.700;2024-01-25T17:19:12;9.02;;;2.15;;
75426;SDS011;64007;50.632;13.700;2024-01-25T17:21:37;11.10;;;2.83;;
75426;SDS011;64007;50.632;13.700;2024-01-25T17:24:03;8.32;;;2.17;;
75426;SDS011;64007;50.632;13.700;2024-01-25T17:26:29;13.15;;;2.42;;
75426;SDS011;64007;50.632;13.700;2024-01-25T17:28:55;9.50;;;2.50;;
75426;SDS011;64007;50.632;13.700;2024-01-25T17:31:21;8.93;;;2.30;;
75426;SDS011;64007;50.632;13.700;2024-01-25T17:33:46;15.20;;;3.22;;
75426;SDS011;64007;50.632;13.700;2024-01-25T17:36:13;8.43;;;2.90;;
75426;SDS011;64007;50.632;13.700;2024-01-25T17:38:39;4.78;;;1.73;;
75426;SDS011;64007;50.632;13.700;2024-01-25T17:41:05;8.30;;;1.80;;
75426;SDS011;64007;50.632;13.700;2024-01-25T17:43:32;7.40;;;1.58;;
75426;SDS011;64007;50.632;13.700;2024-01-25T17:45:59;9.25;;;1.95;;
75426;SDS011;64007;50.632;13.700;2024-01-25T17:48:25;10.98;;;1.90;;
75426;SDS011;64007;50.632;13.700;2024-01-25T17:50:51;6.25;;;1.23;;
75426;SDS011;64007;50.632;13.700;2024-01-25T17:53:17;7.00;;;2.95;;
75426;SDS011;64007;50.632;13.700;2024-01-25T17:55:42;8.05;;;1.65;;
75426;SDS011;64007;50.632;13.700;2024-01-25T17:58:08;10.48;;;1.80;;
75426;SDS011;64007;50.632;13.700;2024-01-25T18:00:34;7.05;;;1.60;;
75426;SDS011;64007;50.632;13.700;2024-01-25T18:03:00;10.25;;;2.70;;
75426;SDS011;64007;50.632;13.700;2024-01-25T18:05:25;15.43;;;4.20;;
75426;SDS011;64007;50.632;13.700;2024-01-25T18:07:52;26.33;;;6.90;;
75426;SDS011;64007;50.632;13.700;2024-01-25T18:10:17;25.90;;;6.97;;
75426;SDS011;64007;50.632;13.700;2024-01-25T18:12:43;34.35;;;10.52;;
75426;SDS011;64007;50.632;13.700;2024-01-25T18:15:09;48.42;;;9.40;;
75426;SDS011;64007;50.632;13.700;2024-01-25T18:17:35;102.90;;;19.90;;
75426;SDS011;64007;50.632;13.700;2024-01-25T18:20:01;27.42;;;5.63;;
75426;SDS011;64007;50.632;13.700;2024-01-25T18:22:27;14.50;;;2.38;;
75426;SDS011;64007;50.632;13.700;2024-01-25T18:24:53;38.75;;;7.88;;
75426;SDS011;64007;50.632;13.700;2024-01-25T18:27:18;41.75;;;9.32;;